createdAt,value
2023-05-02T00:03:13.809Z,68.36
2023-05-02T00:08:17.110Z,68.68
2023-05-02T00:13:19.516Z,68.85
2023-05-02T00:18:21.892Z,68.84
2023-05-02T00:23:24.434Z,68.88
2023-05-02T00:28:27.646Z,68.88
2023-05-02T00:33:30.001Z,68.90
2023-05-02T00:38:32.396Z,68.95
2023-05-02T00:43:34.841Z,69.08
2023-05-02T00:48:37.258Z,69.15
2023-05-02T00:53:40.917Z,69.61
2023-05-02T00:58:44.571Z,69.54
2023-05-02T01:04:08.967Z,70.20
2023-05-02T01:09:18.036Z,69.98
2023-05-02T01:14:21.200Z,69.67
2023-05-02T01:19:29.604Z,69.98
2023-05-02T01:25:06.401Z,70.34
2023-05-02T01:30:09.688Z,69.83
2023-05-02T01:35:15.337Z,70.01
2023-05-02T01:40:19.885Z,69.91
2023-05-02T01:45:24.288Z,70.18
2023-05-02T01:50:27.525Z,70.08
2023-05-02T01:55:30.072Z,69.98
2023-05-02T02:00:33.318Z,70.15
2023-05-02T02:05:37.041Z,70.33
2023-05-02T02:10:44.257Z,70.71
2023-05-02T02:15:51.606Z,70.87
2023-05-02T02:20:54.721Z,70.65
2023-05-02T02:25:58.144Z,70.48
2023-05-02T02:31:00.678Z,70.63
2023-05-02T02:36:16.444Z,71.34
2023-05-02T02:41:40.995Z,71.42
2023-05-02T02:46:51.341Z,71.16
2023-05-02T02:52:15.932Z,71.81
2023-05-02T02:57:21.465Z,71.27
2023-05-02T03:02:28.828Z,71.40
2023-05-02T03:07:31.811Z,71.29
2023-05-02T03:12:36.954Z,71.41
2023-05-02T03:17:40.420Z,71.66
2023-05-02T03:22:42.893Z,71.85
2023-05-02T03:27:45.277Z,72.01
2023-05-02T03:32:48.444Z,71.98
2023-05-02T03:37:51.770Z,72.00
2023-05-02T03:42:54.230Z,72.34
2023-05-02T03:48:03.372Z,72.14
2023-05-02T03:53:06.619Z,71.92
2023-05-02T03:58:17.770Z,71.93
2023-05-02T04:03:22.232Z,71.43
2023-05-02T04:08:24.949Z,71.58
2023-05-02T04:13:29.545Z,71.17
2023-05-02T04:18:33.280Z,71.02
2023-05-02T04:23:38.398Z,70.91
2023-05-02T04:28:41.389Z,70.74
2023-05-02T04:33:45.791Z,70.82
2023-05-02T04:38:48.991Z,70.71
2023-05-02T04:43:53.173Z,70.50
2023-05-02T04:48:55.675Z,70.36
2023-05-02T04:53:58.110Z,70.14
2023-05-02T04:59:00.482Z,70.05
2023-05-02T05:04:04.117Z,69.83
2023-05-02T05:09:06.717Z,69.25
2023-05-02T05:14:12.247Z,68.77
2023-05-02T05:19:17.693Z,68.41
2023-05-02T05:24:20.211Z,67.87
2023-05-02T05:29:23.973Z,67.51
2023-05-02T05:34:27.548Z,66.59
2023-05-02T05:39:33.698Z,65.71
2023-05-02T05:44:38.963Z,64.62
2023-05-02T05:49:41.720Z,63.96
2023-05-02T05:54:46.262Z,62.61
2023-05-02T05:59:49.323Z,62.07
2023-05-02T06:04:52.706Z,61.07
2023-05-02T06:09:58.528Z,58.72
2023-05-02T06:15:02.169Z,57.82
2023-05-02T06:20:07.565Z,55.61
2023-05-02T06:25:10.306Z,55.23
2023-05-02T06:30:13.010Z,54.32
2023-05-02T06:35:15.676Z,53.71
2023-05-02T06:40:18.186Z,53.07
2023-05-02T06:45:20.595Z,52.71
2023-05-02T06:50:29.304Z,49.78
2023-05-02T06:55:33.296Z,51.96
2023-05-02T07:00:35.805Z,50.93
2023-05-02T07:05:38.363Z,50.60
2023-05-02T07:10:40.733Z,49.56
2023-05-02T07:15:43.637Z,48.20
2023-05-02T07:20:46.262Z,47.92
2023-05-02T07:25:49.103Z,47.56
2023-05-02T07:30:51.538Z,47.04
2023-05-02T07:35:53.986Z,45.71
2023-05-02T07:40:59.531Z,44.47
2023-05-02T07:46:06.031Z,43.38
2023-05-02T07:51:09.650Z,44.20
2023-05-02T07:56:13.358Z,44.38
2023-05-02T08:01:15.911Z,44.25
2023-05-02T08:06:18.450Z,43.52
2023-05-02T08:13:42.659Z,43.17
2023-05-02T08:18:45.081Z,43.39
2023-05-02T08:23:47.461Z,43.33
2023-05-02T08:28:49.824Z,41.92
2023-05-02T08:33:52.474Z,42.48
2023-05-02T08:38:55.051Z,41.46
2023-05-02T08:43:58.239Z,40.87
2023-05-02T08:49:00.630Z,40.51
2023-05-02T08:54:07.904Z,41.29
2023-05-02T08:59:10.293Z,41.33
2023-05-02T09:04:12.839Z,39.98
2023-05-02T09:09:16.157Z,39.78
2023-05-02T09:14:19.672Z,40.07
2023-05-02T09:19:26.624Z,37.53
2023-05-02T09:24:30.039Z,38.48
2023-05-02T09:29:38.264Z,38.15
2023-05-02T09:34:40.693Z,38.85
2023-05-02T09:39:43.950Z,39.03
2023-05-02T09:44:48.433Z,37.94
2023-05-02T09:49:50.801Z,37.08
2023-05-02T09:54:53.682Z,37.20
2023-05-02T09:59:57.515Z,37.26
2023-05-02T10:05:01.245Z,38.37
2023-05-02T10:10:07.456Z,38.33
2023-05-02T10:15:22.530Z,37.65
2023-05-02T10:21:37.127Z,37.33
2023-05-02T10:26:39.707Z,36.17
2023-05-02T10:31:44.790Z,35.72
2023-05-02T10:36:47.639Z,35.79
2023-05-02T10:41:50.320Z,34.67
2023-05-02T10:46:52.742Z,35.37
2023-05-02T10:51:56.397Z,35.51
2023-05-02T10:57:06.824Z,33.68
2023-05-02T11:02:22.017Z,34.24
2023-05-02T11:07:24.825Z,34.80
2023-05-02T11:12:52.875Z,33.72
2023-05-02T11:18:14.793Z,33.04
2023-05-02T11:23:17.412Z,34.07
2023-05-02T11:28:39.700Z,33.97
2023-05-02T11:33:42.074Z,32.54
2023-05-02T11:38:44.673Z,32.42
2023-05-02T11:43:47.160Z,32.31
2023-05-02T11:48:49.564Z,32.45
2023-05-02T11:53:53.705Z,31.79
2023-05-02T11:59:03.842Z,31.13
2023-05-02T12:04:08.396Z,32.02
2023-05-02T12:09:14.018Z,32.44
2023-05-02T12:14:16.678Z,31.86
2023-05-02T12:19:20.680Z,31.65
2023-05-02T12:24:23.209Z,31.94
2023-05-02T12:29:44.682Z,31.25
2023-05-02T12:34:47.139Z,30.79
2023-05-02T12:39:50.253Z,31.09
2023-05-02T12:44:53.662Z,31.54
2023-05-02T12:49:59.652Z,31.11
2023-05-02T12:55:19.538Z,31.81
2023-05-02T13:00:23.163Z,31.66
2023-05-02T13:05:26.100Z,31.16
2023-05-02T13:10:28.698Z,30.63
2023-05-02T13:15:31.296Z,30.20
2023-05-02T13:20:33.744Z,30.76
2023-05-02T13:25:36.258Z,30.58
2023-05-02T13:30:40.161Z,30.12
2023-05-02T13:35:42.834Z,30.05
2023-05-02T13:40:45.404Z,30.03
2023-05-02T13:45:49.261Z,30.09
2023-05-02T13:50:51.799Z,30.22
2023-05-02T13:55:55.432Z,30.02
2023-05-02T14:00:58.259Z,30.07
2023-05-02T14:06:01.863Z,30.34
2023-05-02T14:11:07.169Z,30.17
2023-05-02T14:16:09.876Z,30.23
2023-05-02T14:21:12.396Z,30.25
2023-05-02T14:26:15.681Z,30.85
2023-05-02T14:31:18.075Z,30.52
2023-05-02T14:36:20.750Z,30.36
2023-05-02T14:41:24.503Z,30.59
2023-05-02T14:46:26.993Z,30.73
2023-05-02T14:51:29.379Z,30.08
2023-05-02T14:56:31.955Z,30.84
2023-05-02T15:01:34.573Z,30.44
2023-05-02T15:06:37.350Z,30.77
2023-05-02T15:11:40.141Z,30.99
2023-05-02T15:16:42.719Z,30.99
2023-05-02T15:21:45.178Z,31.00
2023-05-02T15:26:47.589Z,31.02
2023-05-02T15:31:50.676Z,31.73
2023-05-02T15:36:53.281Z,31.93
2023-05-02T15:41:55.834Z,32.51
2023-05-02T15:46:59.400Z,32.39
2023-05-02T15:52:03.340Z,32.62
2023-05-02T15:57:05.902Z,32.82
2023-05-02T16:02:08.390Z,32.94
2023-05-02T16:07:11.488Z,33.56
2023-05-02T16:12:15.045Z,33.32
2023-05-02T16:17:17.502Z,33.93
2023-05-02T16:22:20.097Z,33.44
2023-05-02T16:27:23.925Z,34.14
2023-05-02T16:32:26.490Z,34.64
2023-05-02T16:37:29.246Z,34.96
2023-05-02T16:42:31.933Z,34.49
2023-05-02T16:47:36.068Z,34.88
2023-05-02T16:52:38.631Z,35.71
2023-05-02T16:57:42.725Z,35.57
2023-05-02T17:02:45.305Z,36.41
2023-05-02T17:07:47.862Z,36.33
2023-05-02T17:12:51.362Z,36.40
2023-05-02T17:17:53.938Z,36.71
2023-05-02T17:22:56.708Z,37.01
2023-05-02T17:27:59.337Z,37.04
2023-05-02T17:33:02.125Z,37.69
2023-05-02T17:38:04.903Z,37.13
2023-05-02T17:43:07.815Z,37.43
2023-05-02T17:48:10.839Z,37.55
2023-05-02T17:53:13.717Z,37.98
2023-05-02T17:58:16.984Z,37.89
2023-05-02T18:03:19.685Z,38.40
2023-05-02T18:08:22.424Z,37.76
2023-05-02T18:13:26.593Z,38.21
2023-05-02T18:18:29.099Z,38.54
2023-05-02T18:23:31.669Z,38.37
2023-05-02T18:28:35.778Z,38.44
2023-05-02T18:33:38.352Z,38.73
2023-05-02T18:38:42.426Z,38.91
2023-05-02T18:43:44.937Z,38.98
2023-05-02T18:48:47.520Z,39.23
2023-05-02T18:53:51.787Z,39.29
2023-05-02T18:58:56.853Z,39.17
2023-05-02T19:04:01.279Z,39.41
2023-05-02T19:09:05.820Z,39.66
2023-05-02T19:14:08.441Z,39.55
2023-05-02T19:19:12.538Z,39.54
2023-05-02T19:24:15.114Z,39.82
2023-05-02T19:29:17.506Z,40.17
2023-05-02T19:34:20.196Z,39.86
2023-05-02T19:39:22.681Z,39.94
2023-05-02T19:44:25.264Z,40.24
2023-05-02T19:49:27.748Z,40.48
2023-05-02T19:54:31.034Z,40.65
2023-05-02T19:59:33.646Z,40.52
2023-05-02T20:04:36.216Z,40.90
2023-05-02T20:09:40.216Z,40.85
2023-05-02T20:14:42.698Z,41.14
2023-05-02T20:19:46.413Z,41.02
2023-05-02T20:24:48.967Z,41.35
2023-05-02T20:29:52.439Z,41.37
2023-05-02T20:34:54.890Z,41.17
2023-05-02T20:39:57.450Z,41.27
2023-05-02T20:45:02.346Z,41.74
2023-05-02T20:50:09.773Z,41.55
2023-05-02T20:55:12.503Z,41.47
2023-05-02T21:00:16.420Z,41.69
2023-05-02T21:05:18.883Z,41.36
2023-05-02T21:10:24.113Z,41.75
2023-05-02T21:15:27.177Z,40.98
2023-05-02T21:20:30.521Z,41.51
2023-05-02T21:25:34.449Z,41.61
2023-05-02T21:30:36.851Z,41.75
2023-05-02T21:35:39.342Z,41.95
2023-05-02T21:40:43.286Z,41.89
2023-05-02T21:45:50.258Z,42.91
2023-05-02T21:50:52.784Z,42.52
2023-05-02T21:55:55.336Z,42.49
2023-05-02T22:00:57.969Z,42.66
2023-05-02T22:06:06.664Z,42.82
2023-05-02T22:11:10.856Z,42.74
2023-05-02T22:16:13.427Z,43.10
2023-05-02T22:21:16.361Z,43.18
2023-05-02T22:26:18.860Z,43.50
2023-05-02T22:31:21.803Z,43.08
2023-05-02T22:36:25.391Z,43.27
2023-05-02T22:41:27.929Z,43.62
2023-05-02T22:46:30.437Z,43.65
2023-05-02T22:51:33.666Z,43.73
2023-05-02T22:56:36.097Z,43.66
2023-05-02T23:01:38.932Z,44.08
2023-05-02T23:06:41.570Z,44.11
2023-05-02T23:11:44.067Z,44.00
2023-05-02T23:16:46.963Z,44.53
2023-05-02T23:21:49.422Z,44.74
2023-05-02T23:26:52.473Z,44.54
2023-05-02T23:31:55.860Z,45.18
2023-05-02T23:36:58.334Z,45.24
2023-05-02T23:42:01.198Z,45.41
2023-05-02T23:47:03.833Z,45.76
2023-05-02T23:52:06.696Z,45.72
2023-05-02T23:57:09.659Z,45.84
